Time;durP1;ratioP1;P1;durP2;ratioP2;P2;SDS_P1;SDS_P2;PMS_P1;PMS_P2;Temp;Humidity;BMP_temperature;BMP_pressure;BME280_temperature;BME280_humidity;BME280_pressure;Samples;Min_cycle;Max_cycle;Signal;HPM_P1;HPM_P2
2020/12/09 00:02:31;;;;;;;;;59.25;49.00;;;;;-1.89;62.21;102343.22;4360198;33;9636;-71
2020/12/09 00:05:27;;;;;;;;;45.25;43.00;;;;;-2.17;63.27;102343.38;4360196;33;8964;-72
2020/12/09 00:08:22;;;;;;;;;32.25;32.00;;;;;-2.17;63.27;102346.91;4360125;33;9027;-71
2020/12/09 00:10:50;;;;;;;;;32.25;31.00;;;;;-2.11;63.18;102347.97;4356554;32;8984;-71
2020/12/09 00:13:51;;;;;;;;;22.75;22.50;;;;;-2.16;63.50;102354.00;4365072;32;8899;-71
2020/12/09 00:16:47;;;;;;;;;39.00;31.00;;;;;-2.05;63.05;102348.00;4365901;32;8987;-72
2020/12/09 00:19:29;;;;;;;;;38.00;35.50;;;;;-2.31;63.80;102353.34;4349322;33;8908;-72
2020/12/09 00:21:56;;;;;;;;;47.00;39.50;;;;;-2.10;63.45;102347.78;4361224;32;8991;-72
2020/12/09 00:24:25;;;;;;;;;38.25;33.50;;;;;-2.04;63.28;102356.97;4361620;32;8884;-72
2020/12/09 00:27:21;;;;;;;;;38.00;38.00;;;;;-2.14;63.62;102354.66;4340897;33;8893;-72
2020/12/09 00:30:11;;;;;;;;;38.75;36.00;;;;;-2.15;63.79;102354.84;4360824;32;8889;-72
2020/12/09 00:33:10;;;;;;;;;46.75;41.00;;;;;-2.27;64.08;102344.63;4360461;32;9087;-70
2020/12/09 00:36:06;;;;;;;;;42.75;35.00;;;;;-2.35;64.35;102344.81;4360499;32;8939;-71
2020/12/09 00:39:03;;;;;;;;;22.25;19.50;;;;;-2.23;63.91;102342.31;4375728;32;9049;-70
2020/12/09 00:41:58;;;;;;;;;37.75;33.00;;;;;-2.11;63.79;102347.97;4375210;32;8947;-71
2020/12/09 00:44:54;;;;;;;;;36.75;35.00;;;;;-2.22;64.14;102349.44;4372610;32;8938;-71
2020/12/09 00:47:40;;;;;;;;;31.25;28.50;;;;;-2.07;63.87;102346.50;4360529;33;8960;-71
2020/12/09 00:50:35;;;;;;;;;32.00;26.00;;;;;-1.99;63.22;102347.16;4360569;32;9617;-72
2020/12/09 00:53:31;;;;;;;;;29.00;27.00;;;;;-1.83;63.00;102353.22;4359833;32;9612;-72
2020/12/09 00:55:58;;;;;;;;;30.25;28.75;;;;;-1.85;63.26;102348.00;4360392;32;8978;-72
2020/12/09 00:58:54;;;;;;;;;38.00;35.25;;;;;-1.87;62.96;102352.81;4359318;33;8910;-71
2020/12/09 01:01:49;;;;;;;;;32.75;31.00;;;;;-1.79;63.03;102354.47;4359424;33;8909;-72
2020/12/09 01:04:49;;;;;;;;;29.75;29.75;;;;;-1.82;63.25;102354.91;4360095;32;9571;-72
2020/12/09 01:07:46;;;;;;;;;39.50;38.50;;;;;-1.90;63.15;102353.22;4359458;33;8893;-70
2020/12/09 01:10:41;;;;;;;;;33.25;32.50;;;;;-1.66;62.67;102353.66;4359411;32;8901;-72
2020/12/09 01:13:34;;;;;;;;;29.50;27.25;;;;;-1.85;63.28;102353.41;4361682;32;8893;-72
2020/12/09 01:16:01;;;;;;;;;30.75;27.25;;;;;-1.96;63.63;102354.88;4361595;32;8927;-72
2020/12/09 01:18:29;;;;;;;;;39.50;35.75;;;;;-1.92;63.66;102360.72;4361306;32;8939;-71
2020/12/09 01:20:56;;;;;;;;;28.25;28.25;;;;;-1.87;63.91;102355.50;4360902;32;8920;-71
2020/12/09 01:23:52;;;;;;;;;32.75;30.00;;;;;-1.66;63.06;102353.66;4359699;32;9590;-72
2020/12/09 01:26:49;;;;;;;;;23.50;22.00;;;;;-1.97;63.70;102355.09;4360939;32;8948;-72
2020/12/09 01:29:46;;;;;;;;;27.75;27.00;;;;;-1.73;63.44;102350.94;4360944;32;8936;-72
2020/12/09 01:32:42;;;;;;;;;41.75;40.25;;;;;-1.85;64.15;102347.16;4349637;33;8913;-72
2020/12/09 01:35:39;;;;;;;;;42.50;41.50;;;;;-1.76;63.65;102345.94;4359551;33;8918;-72
2020/12/09 01:38:34;;;;;;;;;61.00;49.50;;;;;-1.86;64.16;102349.03;4360237;32;8947;-72
2020/12/09 01:41:01;;;;;;;;;65.75;52.00;;;;;-1.87;64.31;102346.53;4351105;32;8916;-72
2020/12/09 01:43:57;;;;;;;;;69.00;55.25;;;;;-1.84;64.37;102351.53;4358952;32;8952;-72
2020/12/09 01:46:30;;;;;;;;;69.50;56.50;;;;;-1.99;65.04;102349.88;4360415;32;8946;-72
2020/12/09 01:49:25;;;;;;;;;54.75;48.25;;;;;-1.86;64.49;102353.62;4358754;33;8890;-72
2020/12/09 01:52:22;;;;;;;;;52.75;48.75;;;;;-1.90;65.03;102352.41;4359398;32;8893;-72
2020/12/09 01:54:55;;;;;;;;;56.00;47.00;;;;;-1.77;64.41;102360.50;4347486;33;8974;-72
2020/12/09 01:57:51;;;;;;;;;52.75;47.50;;;;;-1.96;65.38;102360.31;4358683;32;8901;-72
2020/12/09 02:00:46;;;;;;;;;49.25;45.75;;;;;-1.76;65.04;102356.78;4358108;33;8910;-72
2020/12/09 02:03:42;;;;;;;;;44.00;43.50;;;;;-1.55;64.55;102355.72;4358623;33;8909;-71
2020/12/09 02:06:09;;;;;;;;;37.50;34.25;;;;;-1.80;65.72;102363.66;4360378;32;8947;-72
2020/12/09 02:09:04;;;;;;;;;51.75;43.25;;;;;-1.82;65.92;102365.75;4358814;32;8914;-72
2020/12/09 02:11:46;;;;;;;;;49.00;40.00;;;;;-1.81;66.23;102364.69;4359758;32;8923;-71
2020/12/09 02:14:42;;;;;;;;;31.50;30.25;;;;;-1.67;66.07;102358.25;4358661;32;8921;-71
2020/12/09 02:17:38;;;;;;;;;35.50;35.50;;;;;-1.65;66.29;102360.75;4358485;32;8956;-71
2020/12/09 02:20:34;;;;;;;;;33.00;31.00;;;;;-1.63;66.59;102364.91;4358888;32;8901;-71
2020/12/09 02:23:29;;;;;;;;;35.33;32.33;;;;;-1.49;66.38;102363.03;4348570;33;8948;-71
2020/12/09 02:26:25;;;;;;;;;35.33;30.67;;;;;-1.41;66.39;102366.34;4359179;32;8957;-72
2020/12/09 02:28:51;;;;;;;;;24.33;24.33;;;;;-1.16;65.93;102368.41;4360116;32;8893;-71
2020/12/09 02:31:47;;;;;;;;;26.00;23.33;;;;;-1.09;65.69;102363.78;4362213;32;8883;-71
2020/12/09 02:34:42;;;;;;;;;25.33;25.33;;;;;-1.16;66.13;102361.09;4374468;32;8892;-71
2020/12/09 02:37:38;;;;;;;;;19.67;19.67;;;;;-1.09;66.39;102360.25;4373524;32;8908;-72
2020/12/09 02:40:33;;;;;;;;;21.00;21.00;;;;;-1.09;66.87;102358.38;4373672;32;9014;-71
2020/12/09 02:43:01;;;;;;;;;12.67;12.67;;;;;-0.90;66.61;102367.53;4372804;32;8952;-71
2020/12/09 02:45:57;;;;;;;;;16.00;16.00;;;;;-0.80;66.63;102362.47;4374248;32;8997;-71
2020/12/09 02:48:53;;;;;;;;;15.33;14.33;;;;;-0.61;66.56;102368.87;4370934;32;8889;-71
2020/12/09 02:51:51;;;;;;;;;18.33;15.67;;;;;-0.35;65.96;102367.91;4357949;32;9078;-72
2020/12/09 02:54:46;;;;;;;;;16.67;15.00;;;;;-0.41;66.72;102371.50;4349281;32;8968;-72
2020/12/09 02:57:43;;;;;;;;;48.33;42.67;;;;;-0.56;68.14;102372.59;4357982;32;9643;-71
2020/12/09 03:00:38;;;;;;;;;32.33;30.33;;;;;-0.43;68.02;102365.44;4357521;32;8945;-71
2020/12/09 03:03:06;;;;;;;;;12.33;12.33;;;;;-0.28;67.61;102366.00;4358963;32;9132;-71
2020/12/09 03:06:02;;;;;;;;;8.33;8.33;;;;;-0.32;68.30;102367.47;4357725;33;8914;-71
2020/12/09 03:08:57;;;;;;;;;10.00;10.00;;;;;-0.19;68.50;102369.28;4358331;32;8940;-71
2020/12/09 03:11:54;;;;;;;;;12.33;12.33;;;;;-0.21;68.65;102376.84;4361486;32;9013;-71
2020/12/09 03:14:50;;;;;;;;;3.00;3.00;;;;;-0.13;68.47;102368.41;4372792;32;8895;-71
2020/12/09 03:17:23;;;;;;;;;12.67;12.67;;;;;0.22;67.42;102380.50;4373106;32;8906;-72
2020/12/09 03:19:58;;;;;;;;;14.33;14.33;;;;;0.21;67.46;102365.25;4361429;32;9494;-72
2020/12/09 03:22:54;;;;;;;;;10.00;9.67;;;;;0.24;67.62;102374.88;4372947;32;8903;-71
2020/12/09 03:25:35;;;;;;;;;11.33;11.33;;;;;0.05;68.49;102368.50;4374278;32;8933;-71
2020/12/09 03:28:36;;;;;;;;;9.67;9.67;;;;;0.27;67.73;102374.41;4372371;32;8911;-71
2020/12/09 03:31:25;;;;;;;;;12.67;12.33;;;;;0.36;67.28;102380.41;4362162;32;8924;-71
2020/12/09 03:34:00;;;;;;;;;12.00;12.00;;;;;0.30;67.17;102378.56;4373818;32;8968;-70
2020/12/09 03:36:56;;;;;;;;;12.00;12.00;;;;;0.52;66.63;102380.69;4372421;32;8907;-72
2020/12/09 03:39:51;;;;;;;;;7.00;7.00;;;;;0.54;66.67;102388.66;4371571;32;8926;-70
2020/12/09 03:42:47;;;;;;;;;10.00;10.00;;;;;0.27;67.54;102380.69;4373036;32;8934;-71
2020/12/09 03:45:43;;;;;;;;;11.00;10.67;;;;;0.38;66.89;102386.47;4372545;32;9644;-71
2020/12/09 03:48:24;;;;;;;;;9.00;9.00;;;;;0.53;66.76;102390.53;4374325;32;8898;-71
2020/12/09 03:51:19;;;;;;;;;12.00;12.00;;;;;0.56;66.63;102375.66;4347595;32;8963;-71
2020/12/09 03:54:09;;;;;;;;;9.00;9.00;;;;;0.71;65.89;102378.84;4358461;32;8991;-72
2020/12/09 03:56:51;;;;;;;;;18.00;18.00;;;;;0.34;67.22;102377.09;4358715;33;8922;-72
2020/12/09 03:59:47;;;;;;;;;4.00;3.00;;;;;0.42;67.01;102376.81;4357728;32;8913;-71
2020/12/09 04:02:37;;;;;;;;;14.33;14.33;;;;;0.56;66.68;102378.38;4359009;32;8900;-71
2020/12/09 04:05:32;;;;;;;;;25.67;24.67;;;;;0.62;66.62;102382.94;4358559;32;8906;-71
2020/12/09 04:08:28;;;;;;;;;20.33;17.33;;;;;0.40;67.34;102378.94;4357402;32;8913;-70
2020/12/09 04:11:23;;;;;;;;;12.00;12.00;;;;;0.56;66.85;102378.38;4358761;33;8975;-70
2020/12/09 04:14:19;;;;;;;;;18.33;18.33;;;;;0.73;66.63;102384.06;4357301;33;8940;-70
2020/12/09 04:16:46;;;;;;;;;16.00;16.00;;;;;0.86;65.78;102394.03;4369573;32;8895;-71
2020/12/09 04:19:42;;;;;;;;;6.00;6.00;;;;;0.53;66.74;102387.78;4357411;32;8952;-71
2020/12/09 04:22:10;;;;;;;;;13.00;13.00;;;;;0.92;65.78;102396.69;4359310;32;8884;-71
2020/12/09 04:24:44;;;;;;;;;10.00;10.00;;;;;1.00;65.23;102399.13;4359356;33;8892;-71
2020/12/09 04:27:39;;;;;;;;;11.33;11.33;;;;;0.96;65.33;102392.44;4357751;32;8968;-71
2020/12/09 04:30:07;;;;;;;;;12.67;11.33;;;;;1.00;65.46;102395.56;4361154;32;9545;-71
2020/12/09 04:33:03;;;;;;;;;11.67;11.33;;;;;1.09;64.74;102400.47;4350040;33;9527;-71
2020/12/09 04:36:02;;;;;;;;;20.67;20.67;;;;;1.22;64.41;102399.47;4367612;32;8979;-71
2020/12/09 04:38:37;;;;;;;;;12.67;11.33;;;;;0.85;65.64;102392.34;4361114;32;8904;-71
2020/12/09 04:41:34;;;;;;;;;12.67;12.67;;;;;1.03;65.11;102400.53;4359138;32;8889;-72
2020/12/09 04:44:01;;;;;;;;;23.67;23.67;;;;;1.01;65.00;102402.66;4347078;33;9070;-71
2020/12/09 04:47:03;;;;;;;;;25.33;23.33;;;;;0.82;65.54;102399.06;4360341;32;8913;-70
2020/12/09 04:50:11;;;;;;;;;17.33;17.33;;;;;0.67;66.07;102391.25;4360814;32;8944;-71
2020/12/09 04:53:18;;;;;;;;;29.33;27.67;;;;;0.82;65.86;102408.06;4350332;32;9548;-70
2020/12/09 04:56:24;;;;;;;;;32.33;25.67;;;;;0.80;65.12;102391.12;4360116;33;8909;-71
2020/12/09 04:58:55;;;;;;;;;15.00;15.00;;;;;0.55;65.94;102398.50;4366000;32;8886;-70
2020/12/09 05:02:01;;;;;;;;;16.00;15.00;;;;;1.04;64.68;102408.50;4374731;32;8871;-71
2020/12/09 05:04:57;;;;;;;;;9.67;9.67;;;;;0.92;64.61;102401.28;4374861;32;8907;-71
2020/12/09 05:07:35;;;;;;;;;7.00;7.00;;;;;0.79;64.94;102400.38;4376443;32;8993;-71
2020/12/09 05:10:35;;;;;;;;;9.67;9.67;;;;;0.82;64.75;102399.91;4361698;32;8913;-70
2020/12/09 05:13:24;;;;;;;;;14.33;12.67;;;;;0.99;64.24;102402.03;4359848;32;8885;-70
2020/12/09 05:16:21;;;;;;;;;9.00;9.00;;;;;0.87;64.69;102403.84;4365919;32;8976;-71
2020/12/09 05:19:17;;;;;;;;;9.67;8.33;;;;;1.14;63.57;102418.88;4374319;32;8958;-71
2020/12/09 05:22:08;;;;;;;;;10.67;10.67;;;;;0.63;64.97;102406.37;4375136;32;9032;-71
2020/12/09 05:25:04;;;;;;;;;12.00;12.00;;;;;1.11;63.81;102422.87;4364559;32;8975;-71
2020/12/09 05:27:32;;;;;;;;;9.67;9.67;;;;;0.88;64.17;102413.69;4376006;32;8895;-71
2020/12/09 05:30:38;;;;;;;;;19.00;19.00;;;;;0.81;64.14;102419.19;4374760;32;8943;-71
2020/12/09 05:33:06;;;;;;;;;29.33;27.33;;;;;0.81;63.54;102427.38;4361781;32;8967;-72
2020/12/09 05:36:03;;;;;;;;;30.67;30.67;;;;;0.66;63.22;102432.31;4375132;32;9544;-70
2020/12/09 05:39:05;;;;;;;;;25.00;24.00;;;;;0.49;62.75;102437.50;4359926;32;9007;-71
2020/12/09 05:42:15;;;;;;;;;43.00;36.00;;;;;0.13;63.06;102438.97;4358290;32;8889;-70
2020/12/09 05:45:13;;;;;;;;;36.00;32.33;;;;;0.23;63.07;102441.22;4361043;32;8977;-71
2020/12/09 05:48:24;;;;;;;;;34.67;33.33;;;;;0.00;63.11;102444.53;4362160;32;8980;-72
2020/12/09 05:51:19;;;;;;;;;27.67;27.00;;;;;-0.38;63.22;102450.75;4374282;32;8972;-70
2020/12/09 05:54:24;;;;;;;;;39.67;36.33;;;;;-0.46;63.39;102453.72;4372054;32;9547;-70
2020/12/09 05:56:52;;;;;;;;;33.00;30.33;;;;;-0.60;63.62;102452.91;4374636;32;8928;-70
2020/12/09 05:59:41;;;;;;;;;39.33;37.67;;;;;-0.55;63.32;102452.25;4359385;32;8935;-69
2020/12/09 06:02:21;;;;;;;;;25.00;25.00;;;;;-0.46;63.10;102456.44;4373721;32;9159;-70
2020/12/09 06:04:57;;;;;;;;;47.33;45.67;;;;;-0.49;62.95;102459.56;4372214;32;8936;-70
2020/12/09 06:07:27;;;;;;;;;38.67;37.00;;;;;-0.40;62.51;102455.56;4370106;32;8933;-71
2020/12/09 06:10:16;;;;;;;;;27.67;27.67;;;;;-0.48;62.54;102460.41;4365179;32;8884;-71
2020/12/09 06:13:00;;;;;;;;;31.67;30.67;;;;;-0.65;62.54;102468.19;4368752;32;8907;-71
2020/12/09 06:15:33;;;;;;;;;26.67;20.67;;;;;-0.47;62.25;102468.31;4373265;32;8904;-71
2020/12/09 06:18:08;;;;;;;;;32.67;30.33;;;;;-0.65;62.49;102462.75;4370991;32;8892;-71
2020/12/09 06:20:58;;;;;;;;;52.67;47.33;;;;;-0.59;62.50;102470.06;4373096;32;8959;-71
2020/12/09 06:23:28;;;;;;;;;39.67;35.67;;;;;-0.49;62.34;102466.88;4370076;32;8915;-70
2020/12/09 06:25:56;;;;;;;;;41.33;36.33;;;;;-0.41;61.91;102453.06;4370891;32;8892;-70
2020/12/09 06:28:26;;;;;;;;;31.00;29.33;;;;;-0.31;61.44;102462.44;4362214;32;8880;-70
2020/12/09 06:30:57;;;;;;;;;20.67;19.33;;;;;-0.52;61.91;102457.28;4373127;32;8935;-70
2020/12/09 06:33:36;;;;;;;;;39.00;36.67;;;;;-0.45;61.74;102459.97;4363456;32;9248;-70
2020/12/09 06:36:16;;;;;;;;;50.00;48.00;;;;;-0.49;61.79;102451.41;4334363;33;8954;-70
2020/12/09 06:39:04;;;;;;;;;55.25;46.75;;;;;-0.62;62.02;102468.56;4353532;32;8899;-71
2020/12/09 06:41:33;;;;;;;;;38.67;36.67;;;;;-0.36;61.32;102467.69;4371421;32;8900;-71
2020/12/09 06:44:30;;;;;;;;;48.33;42.33;;;;;-0.54;61.50;102472.94;4372570;32;9002;-71
2020/12/09 06:47:27;;;;;;;;;38.33;38.33;;;;;-0.32;61.03;102477.06;4367060;32;8946;-71
2020/12/09 06:50:30;;;;;;;;;43.50;39.50;;;;;-0.70;61.85;102474.25;4369614;32;9926;-70
2020/12/09 06:53:13;;;;;;;;;38.67;37.67;;;;;-0.77;62.23;102475.31;4358018;32;9027;-70
2020/12/09 06:55:41;;;;;;;;;65.50;46.75;;;;;-0.52;61.77;102476.31;4373165;32;8900;-72
2020/12/09 06:58:40;;;;;;;;;50.33;44.33;;;;;-0.35;61.43;102472.06;4365581;32;8884;-72
2020/12/09 07:01:08;;;;;;;;;54.00;45.00;;;;;-0.83;62.66;102468.84;4334262;32;8900;-71
2020/12/09 07:03:40;;;;;;;;;44.75;43.75;;;;;-0.86;62.82;102464.66;4372967;32;8890;-72
2020/12/09 07:06:19;;;;;;;;;80.75;61.50;;;;;-0.58;62.05;102466.28;4365283;32;8909;-72
2020/12/09 07:09:15;;;;;;;;;66.33;50.00;;;;;-0.80;62.93;102459.44;4355225;32;8914;-71
2020/12/09 07:12:10;;;;;;;;;66.50;50.50;;;;;-0.67;62.49;102457.53;4359472;32;8903;-70
2020/12/09 07:14:50;;;;;;;;;48.67;44.33;;;;;-0.40;61.93;102449.28;4372295;32;8922;-71
2020/12/09 07:17:32;;;;;;;;;58.00;50.50;;;;;-0.43;61.87;102453.28;4373065;32;8996;-70
2020/12/09 07:20:04;;;;;;;;;59.25;48.75;;;;;-0.53;62.34;102458.34;4360667;32;9594;-70
2020/12/09 07:22:32;;;;;;;;;46.67;43.00;;;;;-0.39;62.09;102457.22;4373842;32;8902;-71
2020/12/09 07:25:00;;;;;;;;;47.00;44.00;;;;;-0.53;62.39;102457.50;4373520;32;8972;-71
2020/12/09 07:27:28;;;;;;;;;51.33;44.33;;;;;-0.37;62.16;102451.59;4360626;32;8929;-71
2020/12/09 07:30:02;;;;;;;;;38.33;37.00;;;;;-0.14;61.63;102448.34;4370189;32;9567;-71
2020/12/09 07:32:30;;;;;;;;;58.50;50.00;;;;;0.11;61.05;102443.81;4371211;32;8933;-71
2020/12/09 07:34:59;;;;;;;;;63.33;48.67;;;;;0.03;61.52;102448.69;4359974;32;8898;-71
2020/12/09 07:37:32;;;;;;;;;27.67;25.67;;;;;0.14;61.21;102450.69;4362037;32;8908;-70
2020/12/09 07:40:31;;;;;;;;;42.67;40.67;;;;;-0.26;62.33;102459.06;4368248;32;8915;-70
2020/12/09 07:43:27;;;;;;;;;49.33;46.33;;;;;0.16;61.25;102454.06;4364541;32;9004;-70
2020/12/09 07:46:03;;;;;;;;;40.33;36.00;;;;;-0.12;62.36;102455.22;4371490;32;8890;-71
2020/12/09 07:48:33;;;;;;;;;30.33;27.00;;;;;0.28;61.73;102452.28;4370158;32;8964;-71
2020/12/09 07:51:02;;;;;;;;;38.67;36.33;;;;;0.45;61.12;102453.41;4357568;32;8922;-70
2020/12/09 07:53:29;;;;;;;;;31.33;29.00;;;;;0.39;61.00;102448.03;4351757;32;8922;-71
2020/12/09 07:55:58;;;;;;;;;55.33;48.00;;;;;0.52;60.92;102456.09;4372941;32;8894;-71
2020/12/09 07:58:25;;;;;;;;;62.67;52.00;;;;;0.60;60.90;102453.09;4358916;32;8968;-70
2020/12/09 08:00:55;;;;;;;;;31.67;28.67;;;;;0.78;60.42;102447.72;4358298;32;8892;-72
2020/12/09 08:03:26;;;;;;;;;33.67;32.67;;;;;0.62;60.63;102444.72;4345268;33;8920;-71
2020/12/09 08:06:20;;;;;;;;;24.67;23.33;;;;;0.84;59.92;102443.25;4360857;32;8892;-72
2020/12/09 08:09:16;;;;;;;;;36.67;36.67;;;;;0.41;61.17;102441.31;4368589;32;8893;-70
2020/12/09 08:11:44;;;;;;;;;26.33;18.00;;;;;0.80;60.56;102439.31;4346988;33;8958;-70
2020/12/09 08:14:12;;;;;;;;;31.33;28.33;;;;;0.88;59.99;102443.66;4370987;32;9536;-71
2020/12/09 08:16:41;;;;;;;;;26.67;26.33;;;;;1.01;59.91;102441.66;4376526;32;8910;-71
2020/12/09 08:19:10;;;;;;;;;43.33;36.33;;;;;1.47;58.96;102439.50;4375726;32;9015;-71
2020/12/09 08:21:38;;;;;;;;;13.00;13.00;;;;;1.18;59.06;102441.91;4375521;32;8902;-71
2020/12/09 08:24:12;;;;;;;;;16.00;16.00;;;;;1.40;59.03;102442.28;4362635;32;8984;-70
2020/12/09 08:26:43;;;;;;;;;31.00;31.00;;;;;1.48;58.70;102439.25;4374941;32;9554;-71
2020/12/09 08:29:39;;;;;;;;;23.00;23.00;;;;;1.52;58.79;102445.06;4374397;32;8973;-70
2020/12/09 08:32:30;;;;;;;;;31.67;29.00;;;;;1.81;58.13;102432.56;4374104;32;8941;-71
2020/12/09 08:35:09;;;;;;;;;7.33;5.00;;;;;1.76;58.00;102422.31;4371997;32;8942;-71
2020/12/09 08:37:44;;;;;;;;;28.00;25.00;;;;;1.51;58.73;102427.06;4372131;32;8882;-70
2020/12/09 08:40:12;;;;;;;;;18.33;16.67;;;;;1.51;58.54;102427.06;4360002;32;8957;-71
2020/12/09 08:42:55;;;;;;;;;16.33;16.33;;;;;1.64;58.72;102424.19;4374713;32;9721;-71
2020/12/09 08:45:22;;;;;;;;;13.00;11.67;;;;;1.52;58.94;102420.53;4372835;32;8910;-71
2020/12/09 08:47:50;;;;;;;;;15.33;15.33;;;;;1.72;58.56;102418.41;4360788;32;8914;-71
2020/12/09 08:50:19;;;;;;;;;17.67;17.00;;;;;1.97;58.07;102417.44;4370728;32;9667;-71
2020/12/09 08:52:46;;;;;;;;;18.67;18.33;;;;;1.79;58.87;102421.88;4375285;32;8974;-70
2020/12/09 08:55:43;;;;;;;;;31.33;31.33;;;;;1.64;59.24;102414.09;4350283;32;8972;-73
2020/12/09 08:58:13;;;;;;;;;22.75;22.75;;;;;5.54;87.91;102416.13;4361490;32;8896;-74
2020/12/09 09:00:44;;;;;;;;;11.00;9.50;;;;;5.91;79.72;102418.25;4372749;32;12405;-71
2020/12/09 09:03:36;;;;;;;;;21.00;20.00;;;;;3.94;57.21;102419.59;4372499;32;12305;-70
2020/12/09 09:06:04;;;;;;;;;19.67;18.67;;;;;2.97;56.69;102421.06;4374645;32;12369;-71
2020/12/09 09:09:00;;;;;;;;;14.33;14.00;;;;;2.65;57.99;102422.50;4372424;32;12402;-71
2020/12/09 09:11:31;;;;;;;;;15.67;15.67;;;;;2.43;57.99;102420.31;4375219;32;12307;-72
2020/12/09 09:14:12;;;;;;;;;17.00;17.00;;;;;2.60;58.20;102425.09;4374909;32;8937;-71
2020/12/09 09:16:40;;;;;;;;;17.67;17.00;;;;;2.20;58.86;102433.91;4372680;32;8874;-70
2020/12/09 09:19:36;;;;;;;;;17.33;16.00;;;;;2.27;59.16;102426.44;4343591;33;9027;-71
2020/12/09 09:22:18;;;;;;;;;14.67;14.67;;;;;2.34;58.93;102416.25;4360461;32;8900;-71
2020/12/09 09:25:14;;;;;;;;;23.00;20.67;;;;;2.15;59.56;102429.16;4359069;32;9589;-70
2020/12/09 09:28:10;;;;;;;;;17.67;17.67;;;;;2.05;60.08;102417.13;4359604;32;8896;-71
2020/12/09 09:30:38;;;;;;;;;21.33;17.67;;;;;2.09;59.81;102421.06;4366974;32;8872;-71
2020/12/09 09:33:05;;;;;;;;;18.67;16.67;;;;;2.35;59.68;102417.91;4359706;32;8914;-71
2020/12/09 09:36:01;;;;;;;;;21.00;20.00;;;;;2.59;59.13;102420.69;4371783;32;8901;-71
2020/12/09 09:38:33;;;;;;;;;17.33;15.67;;;;;2.74;58.87;102416.44;4374636;32;9028;-69
2020/12/09 09:41:28;;;;;;;;;24.67;21.67;;;;;3.09;58.24;102412.87;4373739;32;8947;-70
2020/12/09 09:44:24;;;;;;;;;41.67;32.00;;;;;3.05;58.05;102406.22;4359994;32;8906;-70
2020/12/09 09:47:07;;;;;;;;;21.33;21.33;;;;;2.82;58.86;102407.06;4374600;32;8906;-70
2020/12/09 09:50:05;;;;;;;;;14.00;14.00;;;;;3.12;58.70;102406.94;4373585;32;8946;-70
2020/12/09 09:52:35;;;;;;;;;16.33;15.67;;;;;3.14;58.37;102403.94;4360824;32;8980;-69
2020/12/09 09:55:30;;;;;;;;;15.67;15.67;;;;;3.57;57.21;102398.88;4373020;32;12354;-70
2020/12/09 09:58:17;;;;;;;;;28.33;27.00;;;;;3.42;57.33;102398.56;4374335;32;12364;-68
2020/12/09 10:01:14;;;;;;;;;28.33;27.33;;;;;3.41;57.43;102396.06;4373855;32;8954;-69
2020/12/09 10:03:44;;;;;;;;;16.50;15.75;;;;;3.44;57.52;102403.78;4363631;32;8943;-69
2020/12/09 10:06:39;;;;;;;;;21.25;19.25;;;;;3.84;56.63;102395.59;4349513;33;13069;-69
2020/12/09 10:09:09;;;;;;;;;17.50;15.25;;;;;3.99;56.00;102397.75;4359369;32;12410;-71
2020/12/09 10:11:37;;;;;;;;;30.75;24.00;;;;;4.03;55.80;102391.56;4358869;32;13052;-70
2020/12/09 10:14:33;;;;;;;;;37.50;34.25;;;;;4.38;55.40;102394.12;4358002;33;12441;-69
2020/12/09 10:17:30;;;;;;;;;29.00;28.25;;;;;3.90;56.06;102384.47;4359787;32;12466;-70
2020/12/09 10:20:17;;;;;;;;;25.25;23.75;;;;;3.93;56.15;102379.59;4365823;32;12369;-70
2020/12/09 10:22:45;;;;;;;;;36.00;33.00;;;;;4.17;55.58;102381.12;4368595;32;12320;-69
2020/12/09 10:25:13;;;;;;;;;11.75;11.75;;;;;3.97;55.91;102372.53;4359470;32;12372;-70
2020/12/09 10:28:09;;;;;;;;;15.25;15.25;;;;;3.83;56.63;102378.34;4357623;33;12455;-70
2020/12/09 10:30:45;;;;;;;;;12.75;12.75;;;;;3.49;57.45;102365.59;4345996;33;12490;-69
2020/12/09 10:33:41;;;;;;;;;15.25;15.25;;;;;3.70;56.86;102369.59;4360704;32;12318;-70
2020/12/09 10:36:37;;;;;;;;;36.67;36.33;;;;;3.89;56.71;102363.66;4363052;32;12333;-70
2020/12/09 10:39:36;;;;;;;;;24.75;24.25;;;;;4.27;55.73;102359.37;4372598;32;8907;-70
2020/12/09 10:42:31;;;;;;;;;26.25;25.25;;;;;4.36;55.66;102363.38;4372578;32;12347;-70
2020/12/09 10:45:27;;;;;;;;;14.00;14.00;;;;;4.36;55.60;102357.06;4368074;32;12393;-68
2020/12/09 10:48:23;;;;;;;;;14.25;14.00;;;;;4.40;55.40;102361.81;4372485;32;12320;-74
2020/12/09 10:51:18;;;;;;;;;19.25;16.00;;;;;4.48;55.42;102363.31;4362851;32;12364;-70
2020/12/09 10:54:17;;;;;;;;;18.50;17.00;;;;;4.13;56.18;102353.41;4362545;32;12371;-70
2020/12/09 10:57:14;;;;;;;;;28.00;27.50;;;;;4.35;55.70;102355.41;4372491;32;12333;-70
2020/12/09 10:59:51;;;;;;;;;31.00;23.50;;;;;4.71;54.78;102354.06;4373209;32;12369;-69
2020/12/09 11:02:21;;;;;;;;;19.00;19.00;;;;;4.31;55.61;102351.53;4373404;32;13079;-70
2020/12/09 11:04:48;;;;;;;;;27.00;25.75;;;;;4.51;55.41;102354.56;4374086;32;12374;-71
2020/12/09 11:07:31;;;;;;;;;76.33;60.67;;;;;4.57;55.17;102348.09;4373330;32;12400;-69
2020/12/09 11:10:26;;;;;;;;;27.33;26.67;;;;;4.69;54.85;102348.84;4361939;32;8907;-69
2020/12/09 11:12:53;;;;;;;;;20.75;19.25;;;;;4.73;54.52;102343.69;4373114;32;12315;-69
2020/12/09 11:15:49;;;;;;;;;10.00;10.00;;;;;4.77;54.44;102341.28;4359903;32;12439;-69
2020/12/09 11:18:46;;;;;;;;;21.50;20.00;;;;;4.43;55.32;102338.56;4357685;32;13048;-69
2020/12/09 11:21:22;;;;;;;;;14.25;14.25;;;;;4.35;55.90;102328.84;4358089;32;12967;-70
2020/12/09 11:23:51;;;;;;;;;14.75;14.50;;;;;4.28;56.23;102339.13;4358820;32;12370;-70
2020/12/09 11:26:47;;;;;;;;;21.50;19.75;;;;;4.51;55.75;102338.13;4357619;33;12547;-70
2020/12/09 11:29:15;;;;;;;;;26.50;23.50;;;;;4.88;54.77;102334.84;4344712;33;12341;-69
2020/12/09 11:32:11;;;;;;;;;20.25;20.25;;;;;4.85;54.44;102341.69;4347746;33;12383;-70
2020/12/09 11:34:56;;;;;;;;;20.75;20.75;;;;;5.12;53.82;102322.56;4358582;32;12344;-69
2020/12/09 11:37:54;;;;;;;;;11.50;11.50;;;;;5.22;53.57;102344.66;4356571;33;12361;-70
2020/12/09 11:40:25;;;;;;;;;13.25;12.75;;;;;5.37;52.93;102335.78;4358520;33;12306;-69
2020/12/09 11:43:01;;;;;;;;;19.25;16.00;;;;;5.24;53.19;102341.66;4349102;32;12294;-70
2020/12/09 11:45:57;;;;;;;;;21.00;19.75;;;;;5.32;52.88;102341.22;4357021;32;12584;-68
2020/12/09 11:48:39;;;;;;;;;18.00;14.50;;;;;5.20;52.96;102335.00;4358724;32;12351;-69
2020/12/09 11:51:35;;;;;;;;;19.75;19.25;;;;;5.31;52.68;102328.56;4357225;33;12403;-70
2020/12/09 11:54:30;;;;;;;;;14.50;14.50;;;;;5.46;52.12;102336.16;4356899;33;13026;-70
2020/12/09 11:57:26;;;;;;;;;16.00;15.00;;;;;5.55;52.00;102320.91;4356801;32;12321;-70
2020/12/09 12:00:22;;;;;;;;;14.25;14.25;;;;;5.83;50.91;102320.66;4369413;32;12335;-69
2020/12/09 12:02:50;;;;;;;;;18.00;17.50;;;;;5.92;50.69;102332.03;4371275;32;13091;-69
2020/12/09 12:05:52;;;;;;;;;14.00;12.50;;;;;5.84;50.49;102326.97;4362382;32;12385;-69
2020/12/09 12:08:49;;;;;;;;;14.50;14.50;;;;;6.07;50.34;102323.94;4371896;32;12373;-70
2020/12/09 12:11:44;;;;;;;;;17.75;14.50;;;;;5.89;50.57;102320.69;4360418;32;12496;-69
2020/12/09 12:14:26;;;;;;;;;19.25;16.00;;;;;5.56;51.21;102328.87;4362749;32;13004;-70
2020/12/09 12:17:23;;;;;;;;;13.75;13.75;;;;;5.92;50.37;102331.19;4370249;32;12337;-69
2020/12/09 12:20:20;;;;;;;;;13.25;13.25;;;;;5.90;50.18;102328.66;4360959;32;12352;-69
2020/12/09 12:23:16;;;;;;;;;14.25;13.00;;;;;5.86;50.34;102331.13;4357572;33;12333;-70
2020/12/09 12:26:19;;;;;;;;;18.50;15.25;;;;;5.73;50.86;102339.75;4358260;32;12398;-70
2020/12/09 12:29:15;;;;;;;;;19.75;19.75;;;;;5.41;51.41;102342.41;4364546;32;12332;-70
2020/12/09 12:32:11;;;;;;;;;19.25;19.25;;;;;5.66;51.06;102343.78;4371992;32;12343;-70
2020/12/09 12:34:38;;;;;;;;;11.50;11.50;;;;;5.70;50.72;102343.03;4373138;32;12341;-70
2020/12/09 12:37:07;;;;;;;;;20.25;19.75;;;;;5.57;51.10;102337.94;4361840;32;12383;-71
2020/12/09 12:40:04;;;;;;;;;16.50;16.50;;;;;5.38;51.46;102344.84;4360163;32;12399;-71
2020/12/09 12:43:00;;;;;;;;;13.50;13.50;;;;;5.28;51.77;102354.59;4367966;32;12408;-71
2020/12/09 12:45:55;;;;;;;;;15.75;14.25;;;;;5.29;51.22;102347.19;4369415;32;12377;-70
2020/12/09 12:48:22;;;;;;;;;16.75;13.75;;;;;5.26;51.20;102350.44;4370900;32;12347;-70